Time;durP1;ratioP1;P1;durP2;ratioP2;P2;SDS_P1;SDS_P2;PMS_P1;PMS_P2;Temp;Humidity;BMP_temperature;BMP_pressure;BME280_temperature;BME280_humidity;BME280_pressure;Samples;Min_cycle;Max_cycle;Signal;HPM_P1;HPM_P2
2021/05/19 00:02:23;;;;;;;6.93;6.33;;;;;;;;;;6244531;23;20246;-75
2021/05/19 00:05:08;;;;;;;7.10;6.40;;;;;;;;;;6244248;22;20200;-75
2021/05/19 00:07:53;;;;;;;5.77;5.27;;;;;;;;;;6244513;23;20177;-75
2021/05/19 00:10:38;;;;;;;5.87;5.27;;;;;;;;;;6244703;23;20165;-75
2021/05/19 00:13:26;;;;;;;5.43;4.93;;;;;;;;;;6245293;23;20490;-75
2021/05/19 00:16:11;;;;;;;5.10;4.70;;;;;;;;;;6243893;23;20199;-75
2021/05/19 00:18:56;;;;;;;6.32;5.82;;;;;;;;;;6244199;23;20454;-75
2021/05/19 00:21:40;;;;;;;5.77;5.27;;;;;;;;;;6244360;23;20223;-75
2021/05/19 00:24:26;;;;;;;5.43;5.03;;;;;;;;;;6244545;22;20223;-75
2021/05/19 01:36:25;;;;;;;10.50;9.40;;;;;;;;;;6242728;23;20511;-74
2021/05/19 01:39:10;;;;;;;9.93;8.93;;;;;;;;;;6243738;23;20220;-75
2021/05/19 01:41:54;;;;;;;9.77;8.87;;;;;;;;;;6243697;23;20200;-75
2021/05/19 01:44:39;;;;;;;10.97;9.97;;;;;;;;;;6243676;22;20288;-75
2021/05/19 01:47:29;;;;;;;11.10;10.00;;;;;;;;;;6243493;23;20216;-74
2021/05/19 01:50:14;;;;;;;12.40;11.10;;;;;;;;;;6243548;23;20172;-74
2021/05/19 01:53:03;;;;;;;13.00;11.77;;;;;;;;;;6243627;23;20533;-75
2021/05/19 01:55:48;;;;;;;12.93;11.80;;;;;;;;;;6242834;22;20207;-75
2021/05/19 01:58:32;;;;;;;13.10;11.90;;;;;;;;;;6243458;23;20303;-75
2021/05/19 02:01:17;;;;;;;13.17;12.03;;;;;;;;;;6243535;23;20551;-75
2021/05/19 02:04:06;;;;;;;13.63;12.33;;;;;;;;;;6243438;22;20203;-75
2021/05/19 02:06:53;;;;;;;14.77;13.37;;;;;;;;;;6242845;23;20196;-75
2021/05/19 02:09:39;;;;;;;14.57;13.27;;;;;;;;;;6243611;23;20173;-74
2021/05/19 02:12:23;;;;;;;15.13;13.67;;;;;;;;;;6243418;23;20169;-75
2021/05/19 02:15:09;;;;;;;17.95;16.25;;;;;;;;;;6241395;22;20723;-75
2021/05/19 02:17:53;;;;;;;13.97;12.77;;;;;;;;;;6243336;23;20175;-75
2021/05/19 02:20:37;;;;;;;14.73;13.33;;;;;;;;;;6243186;23;20246;-75
2021/05/19 02:23:22;;;;;;;15.37;14.07;;;;;;;;;;6243538;23;20173;-74
2021/05/19 02:26:07;;;;;;;16.07;14.47;;;;;;;;;;6243046;23;20551;-74
2021/05/19 02:28:52;;;;;;;14.77;13.47;;;;;;;;;;6243130;23;20170;-74
2021/05/19 02:31:37;;;;;;;15.17;13.67;;;;;;;;;;6243169;23;20171;-75
2021/05/19 02:34:21;;;;;;;14.97;13.57;;;;;;;;;;6243101;22;20307;-74
2021/05/19 02:37:06;;;;;;;16.00;14.30;;;;;;;;;;6242569;23;20220;-75
2021/05/19 02:39:50;;;;;;;15.40;13.80;;;;;;;;;;6243190;23;20176;-75
2021/05/19 02:42:36;;;;;;;15.27;13.97;;;;;;;;;;6243150;23;20187;-75
2021/05/19 02:45:20;;;;;;;14.57;13.27;;;;;;;;;;6242764;22;20230;-75
2021/05/19 02:48:05;;;;;;;15.37;13.87;;;;;;;;;;6243455;23;20565;-75
2021/05/19 02:50:49;;;;;;;20.48;18.58;;;;;;;;;;6241989;23;20420;-74
2021/05/19 02:53:33;;;;;;;16.43;14.83;;;;;;;;;;6242954;22;20186;-75
2021/05/19 02:56:18;;;;;;;15.60;14.20;;;;;;;;;;6242500;23;20312;-75
2021/05/19 02:59:04;;;;;;;15.33;13.90;;;;;;;;;;6242895;23;20242;-74
2021/05/19 03:01:48;;;;;;;16.13;14.67;;;;;;;;;;6243157;23;20171;-74
2021/05/19 03:04:33;;;;;;;16.50;14.97;;;;;;;;;;6242820;22;20198;-75
2021/05/19 03:07:17;;;;;;;16.23;14.63;;;;;;;;;;6241896;23;20200;-75
2021/05/19 03:10:03;;;;;;;15.63;14.23;;;;;;;;;;6242937;23;20169;-74
2021/05/19 03:12:50;;;;;;;15.10;13.70;;;;;;;;;;6243305;23;20174;-75
2021/05/19 03:15:36;;;;;;;16.07;14.43;;;;;;;;;;6242016;22;20291;-75
2021/05/19 03:18:20;;;;;;;15.87;14.37;;;;;;;;;;6243216;23;20198;-74
2021/05/19 03:21:04;;;;;;;17.27;15.67;;;;;;;;;;6242879;23;20544;-75
2021/05/19 03:23:49;;;;;;;18.67;15.47;;;;;;;;;;6242893;22;20199;-74
2021/05/19 03:26:33;;;;;;;15.83;14.33;;;;;;;;;;6243747;23;20258;-75
2021/05/19 03:29:18;;;;;;;15.30;13.87;;;;;;;;;;6244824;23;20176;-74
2021/05/19 03:32:04;;;;;;;17.00;15.40;;;;;;;;;;6244338;23;20165;-75
2021/05/19 03:34:49;;;;;;;16.00;14.50;;;;;;;;;;6244607;22;20710;-75
2021/05/19 03:37:33;;;;;;;16.90;15.40;;;;;;;;;;6244822;23;20166;-74
2021/05/19 03:40:19;;;;;;;16.77;15.27;;;;;;;;;;6244496;23;20567;-74
2021/05/19 03:43:04;;;;;;;17.27;15.77;;;;;;;;;;6244597;23;20187;-75
2021/05/19 03:45:48;;;;;;;17.20;15.47;;;;;;;;;;6244074;23;20222;-74
2021/05/19 03:48:33;;;;;;;19.43;17.47;;;;;;;;;;6244467;23;20172;-74
2021/05/19 03:51:18;;;;;;;18.90;17.30;;;;;;;;;;6244595;23;20238;-74
2021/05/19 03:54:03;;;;;;;17.63;15.97;;;;;;;;;;6244582;22;20204;-74
2021/05/19 03:56:49;;;;;;;22.52;20.52;;;;;;;;;;6243003;23;20404;-74
2021/05/19 03:59:34;;;;;;;18.77;17.17;;;;;;;;;;6244441;23;20167;-74
2021/05/19 04:02:18;;;;;;;17.67;16.03;;;;;;;;;;6244130;23;20211;-74
2021/05/19 04:05:04;;;;;;;17.57;15.87;;;;;;;;;;6244121;22;20675;-74
2021/05/19 04:07:49;;;;;;;18.37;16.47;;;;;;;;;;6244518;23;20594;-74
2021/05/19 04:10:35;;;;;;;18.10;16.30;;;;;;;;;;6243015;23;20169;-74
2021/05/19 04:13:20;;;;;;;16.87;15.40;;;;;;;;;;6244180;22;20169;-74
2021/05/19 04:16:05;;;;;;;17.43;15.90;;;;;;;;;;6243374;23;20855;-74
2021/05/19 04:18:50;;;;;;;18.87;16.97;;;;;;;;;;6244472;23;20667;-75
2021/05/19 04:21:35;;;;;;;18.17;16.47;;;;;;;;;;6244472;23;20169;-75
2021/05/19 04:24:19;;;;;;;18.70;17.10;;;;;;;;;;6244470;22;20285;-74
2021/05/19 04:27:04;;;;;;;16.83;15.43;;;;;;;;;;6243747;23;20265;-75
2021/05/19 04:29:49;;;;;;;18.10;16.40;;;;;;;;;;6244396;23;20176;-74
2021/05/19 04:32:33;;;;;;;18.23;16.57;;;;;;;;;;6244225;23;20172;-74
2021/05/19 04:35:18;;;;;;;17.73;16.03;;;;;;;;;;6243927;22;20349;-75
2021/05/19 04:38:03;;;;;;;18.30;16.60;;;;;;;;;;6243933;23;20211;-74
2021/05/19 04:40:48;;;;;;;19.13;17.13;;;;;;;;;;6244365;23;20169;-74
2021/05/19 04:43:32;;;;;;;19.03;17.23;;;;;;;;;;6244293;22;20243;-75
2021/05/19 04:46:17;;;;;;;21.50;19.45;;;;;;;;;;6243174;23;20466;-74
2021/05/19 04:49:01;;;;;;;20.80;18.63;;;;;;;;;;6244170;23;20165;-75
2021/05/19 04:51:46;;;;;;;22.20;20.10;;;;;;;;;;6243991;23;20231;-75
2021/05/19 04:54:33;;;;;;;23.07;20.97;;;;;;;;;;6243951;22;20215;-75
2021/05/19 04:57:18;;;;;;;22.77;20.77;;;;;;;;;;6243561;23;20627;-74
2021/05/19 05:00:03;;;;;;;22.97;20.47;;;;;;;;;;6243834;23;20247;-75
2021/05/19 05:02:47;;;;;;;23.47;21.07;;;;;;;;;;6243756;23;20169;-74
2021/05/19 05:05:32;;;;;;;23.07;20.87;;;;;;;;;;6243415;23;20184;-75
2021/05/19 05:08:17;;;;;;;23.20;20.80;;;;;;;;;;6243859;23;20219;-75
2021/05/19 05:11:03;;;;;;;22.07;20.07;;;;;;;;;;6243868;23;20253;-75
2021/05/19 05:13:47;;;;;;;22.83;20.53;;;;;;;;;;6243832;22;20212;-75
2021/05/19 05:16:32;;;;;;;21.90;19.77;;;;;;;;;;6243031;23;20277;-75
2021/05/19 05:19:16;;;;;;;21.70;19.47;;;;;;;;;;6243800;23;20172;-74
2021/05/19 05:22:01;;;;;;;20.73;18.77;;;;;;;;;;6243932;23;20341;-75
2021/05/19 05:24:45;;;;;;;21.47;19.37;;;;;;;;;;6244109;22;20248;-74
2021/05/19 05:27:30;;;;;;;21.23;19.23;;;;;;;;;;6244078;23;20612;-74
2021/05/19 05:30:16;;;;;;;20.87;18.70;;;;;;;;;;6243698;23;20181;-75
2021/05/19 05:33:00;;;;;;;21.50;19.30;;;;;;;;;;6243942;23;20235;-74
2021/05/19 05:35:44;;;;;;;20.10;18.10;;;;;;;;;;6243171;23;20703;-75
2021/05/19 05:38:29;;;;;;;23.65;21.42;;;;;;;;;;6242279;23;20392;-74
2021/05/19 05:41:14;;;;;;;21.30;19.27;;;;;;;;;;6243094;23;20224;-74
2021/05/19 05:43:59;;;;;;;20.30;18.20;;;;;;;;;;6243533;22;20201;-74
2021/05/19 05:46:43;;;;;;;19.77;17.70;;;;;;;;;;6243182;23;20220;-76
2021/05/19 05:49:28;;;;;;;18.53;16.80;;;;;;;;;;6243713;23;20652;-76
2021/05/19 05:52:12;;;;;;;19.40;17.33;;;;;;;;;;6243506;23;20168;-76
2021/05/19 05:54:57;;;;;;;20.57;17.53;;;;;;;;;;6242241;22;20750;-75
2021/05/19 05:57:41;;;;;;;19.27;16.93;;;;;;;;;;6243181;23;20543;-76
2021/05/19 06:00:27;;;;;;;18.37;16.47;;;;;;;;;;6243172;23;20498;-76
2021/05/19 06:03:12;;;;;;;18.87;16.90;;;;;;;;;;6243213;22;20178;-75
2021/05/19 06:05:56;;;;;;;19.40;17.23;;;;;;;;;;6242464;23;20609;-76
2021/05/19 06:08:41;;;;;;;18.53;16.63;;;;;;;;;;6243200;23;20170;-75
2021/05/19 06:11:25;;;;;;;20.93;18.83;;;;;;;;;;6243315;23;20259;-76
2021/05/19 06:14:10;;;;;;;20.07;18.17;;;;;;;;;;6243024;22;20240;-75
2021/05/19 06:16:56;;;;;;;20.63;17.40;;;;;;;;;;6242636;23;20549;-75
2021/05/19 06:19:41;;;;;;;20.90;17.17;;;;;;;;;;6243489;23;20678;-76
2021/05/19 06:22:26;;;;;;;19.03;17.03;;;;;;;;;;6243594;23;20269;-75
2021/05/19 06:25:11;;;;;;;20.00;17.87;;;;;;;;;;6242318;22;20809;-75
2021/05/19 06:27:56;;;;;;;21.70;19.35;;;;;;;;;;6242521;22;20404;-72
2021/05/19 06:30:40;;;;;;;21.07;18.90;;;;;;;;;;6242804;23;20171;-72
2021/05/19 06:33:27;;;;;;;21.27;19.13;;;;;;;;;;6242808;22;20276;-72
2021/05/19 06:36:12;;;;;;;24.07;20.77;;;;;;;;;;6242492;23;20199;-72
2021/05/19 06:38:56;;;;;;;24.63;21.27;;;;;;;;;;6242877;23;20507;-72
2021/05/19 06:41:42;;;;;;;25.13;21.20;;;;;;;;;;6242973;23;20173;-71
2021/05/19 06:44:27;;;;;;;24.83;20.97;;;;;;;;;;6242646;22;20198;-71
2021/05/19 06:47:11;;;;;;;22.87;20.67;;;;;;;;;;6242322;23;20228;-71
2021/05/19 06:49:59;;;;;;;22.37;19.90;;;;;;;;;;6243032;23;20187;-70
2021/05/19 06:52:44;;;;;;;22.07;20.00;;;;;;;;;;6242692;22;20214;-70
2021/05/19 06:55:30;;;;;;;21.63;18.77;;;;;;;;;;6242261;23;20199;-70
2021/05/19 06:58:17;;;;;;;22.50;20.40;;;;;;;;;;6242711;23;20183;-69
2021/05/19 07:01:06;;;;;;;25.10;21.00;;;;;;;;;;6242502;23;20495;-70
2021/05/19 07:03:52;;;;;;;26.43;22.97;;;;;;;;;;6242190;22;20202;-69
2021/05/19 07:06:37;;;;;;;32.17;27.93;;;;;;;;;;6242183;23;20171;-70
2021/05/19 07:09:24;;;;;;;28.47;25.57;;;;;;;;;;6242515;23;20170;-68
2021/05/19 07:12:09;;;;;;;26.77;23.97;;;;;;;;;;6242813;23;20194;-68
2021/05/19 07:14:57;;;;;;;25.10;22.60;;;;;;;;;;6242228;22;20571;-70
2021/05/19 07:17:42;;;;;;;25.87;20.90;;;;;;;;;;6242869;23;20607;-71
2021/05/19 07:20:28;;;;;;;26.63;23.77;;;;;;;;;;6241749;23;20378;-71
2021/05/19 07:23:14;;;;;;;25.03;22.33;;;;;;;;;;6242670;22;20428;-70
2021/05/19 07:25:58;;;;;;;33.17;29.77;;;;;;;;;;6241840;23;20219;-69
2021/05/19 07:28:46;;;;;;;29.83;26.90;;;;;;;;;;6242722;23;20671;-69
2021/05/19 07:31:35;;;;;;;24.57;21.97;;;;;;;;;;6242238;23;20220;-68
2021/05/19 07:34:25;;;;;;;24.97;20.27;;;;;;;;;;6242364;22;20200;-69
2021/05/19 07:37:12;;;;;;;22.67;20.03;;;;;;;;;;6241705;23;20205;-69
2021/05/19 07:39:58;;;;;;;26.57;20.17;;;;;;;;;;6242079;23;20169;-69
2021/05/19 07:42:43;;;;;;;22.37;20.07;;;;;;;;;;6242157;22;20219;-70
2021/05/19 07:45:30;;;;;;;22.43;20.07;;;;;;;;;;6241991;23;20196;-71
2021/05/19 07:48:15;;;;;;;23.30;20.80;;;;;;;;;;6242624;23;20169;-70
2021/05/19 07:50:59;;;;;;;23.80;19.87;;;;;;;;;;6242288;23;20192;-69
2021/05/19 07:53:44;;;;;;;25.63;23.13;;;;;;;;;;6242079;22;20405;-70
2021/05/19 07:56:35;;;;;;;22.30;19.30;;;;;;;;;;6241954;23;20756;-69
2021/05/19 07:59:22;;;;;;;20.70;18.60;;;;;;;;;;6242147;23;20208;-69
2021/05/19 08:02:15;;;;;;;21.30;18.20;;;;;;;;;;6242189;22;20233;-70
2021/05/19 08:05:00;;;;;;;24.20;20.17;;;;;;;;;;6242271;23;20181;-69
2021/05/19 08:07:45;;;;;;;22.53;20.13;;;;;;;;;;6241989;23;20185;-69
2021/05/19 08:10:29;;;;;;;26.52;23.73;;;;;;;;;;6240739;23;20414;-68
2021/05/19 08:13:16;;;;;;;24.57;21.97;;;;;;;;;;6243443;22;20215;-70
2021/05/19 08:16:01;;;;;;;24.13;21.70;;;;;;;;;;6243859;23;20532;-70
2021/05/19 08:18:48;;;;;;;26.03;21.87;;;;;;;;;;6244291;23;20227;-71
2021/05/19 08:21:35;;;;;;;24.70;22.10;;;;;;;;;;6244720;23;20241;-70
2021/05/19 08:24:23;;;;;;;24.23;21.73;;;;;;;;;;6244580;23;20177;-71
2021/05/19 08:27:07;;;;;;;28.13;23.00;;;;;;;;;;6243674;23;20195;-70
2021/05/19 08:29:53;;;;;;;24.70;21.27;;;;;;;;;;6244018;23;20215;-70
2021/05/19 08:32:38;;;;;;;26.20;23.47;;;;;;;;;;6244478;22;20571;-70
2021/05/19 08:35:25;;;;;;;26.17;21.43;;;;;;;;;;6243355;23;20201;-70
2021/05/19 08:38:12;;;;;;;23.00;20.57;;;;;;;;;;6243890;23;20297;-71
2021/05/19 08:41:02;;;;;;;22.97;20.57;;;;;;;;;;6243864;23;20165;-71
2021/05/19 08:43:50;;;;;;;23.20;20.80;;;;;;;;;;6243558;22;20295;-70
2021/05/19 08:46:42;;;;;;;22.30;19.63;;;;;;;;;;6243638;23;20651;-70
2021/05/19 08:49:27;;;;;;;22.97;20.57;;;;;;;;;;6243565;23;20247;-71
2021/05/19 08:52:12;;;;;;;22.80;20.60;;;;;;;;;;6244096;22;20197;-70
2021/05/19 08:54:57;;;;;;;22.50;20.07;;;;;;;;;;6243634;23;20679;-70
2021/05/19 08:57:43;;;;;;;24.03;20.53;;;;;;;;;;6243561;23;20616;-70
2021/05/19 09:00:32;;;;;;;23.42;21.13;;;;;;;;;;6242414;23;20448;-71
2021/05/19 09:03:17;;;;;;;23.63;21.37;;;;;;;;;;6243425;22;20236;-71
2021/05/19 09:06:08;;;;;;;24.03;21.67;;;;;;;;;;6243317;23;20502;-72
2021/05/19 09:08:55;;;;;;;24.20;21.20;;;;;;;;;;6243335;23;20220;-69
2021/05/19 09:11:56;;;;;;;25.10;22.50;;;;;;;;;;6242909;22;20277;-68
2021/05/19 09:14:42;;;;;;;22.97;20.67;;;;;;;;;;6243449;23;20571;-69
2021/05/19 09:17:28;;;;;;;24.27;21.40;;;;;;;;;;6242328;23;20228;-68
2021/05/19 09:20:15;;;;;;;23.67;21.43;;;;;;;;;;6243988;23;20644;-69
2021/05/19 09:23:04;;;;;;;23.63;20.97;;;;;;;;;;6243436;22;20196;-69
2021/05/19 09:26:04;;;;;;;22.63;20.50;;;;;;;;;;6242941;23;20549;-69
2021/05/19 09:28:49;;;;;;;20.47;18.57;;;;;;;;;;6243629;23;20268;-68
2021/05/19 09:31:33;;;;;;;17.20;15.40;;;;;;;;;;6243643;22;20202;-69
2021/05/19 09:34:25;;;;;;;19.97;17.77;;;;;;;;;;6243870;23;20213;-69
2021/05/19 09:37:18;;;;;;;20.10;18.13;;;;;;;;;;6242824;23;20247;-68
2021/05/19 09:40:04;;;;;;;35.43;21.07;;;;;;;;;;6242885;23;20200;-69
2021/05/19 09:42:49;;;;;;;20.27;18.23;;;;;;;;;;6241888;22;20424;-69
2021/05/19 09:45:40;;;;;;;18.07;16.37;;;;;;;;;;6242908;23;20575;-69
2021/05/19 09:48:25;;;;;;;18.00;16.17;;;;;;;;;;6242849;23;20216;-68
2021/05/19 09:51:24;;;;;;;17.90;16.13;;;;;;;;;;6242150;22;20216;-68
2021/05/19 09:54:23;;;;;;;18.97;17.17;;;;;;;;;;6242153;23;20540;-68
2021/05/19 09:57:11;;;;;;;19.33;17.33;;;;;;;;;;6241212;23;20332;-70
2021/05/19 09:59:58;;;;;;;19.17;17.47;;;;;;;;;;6242379;23;20509;-71
2021/05/19 10:02:43;;;;;;;20.73;18.53;;;;;;;;;;6242224;22;20251;-68
2021/05/19 10:05:31;;;;;;;19.20;17.20;;;;;;;;;;6241487;23;20173;-68
2021/05/19 10:08:16;;;;;;;17.07;14.83;;;;;;;;;;6242262;23;20224;-68
2021/05/19 10:11:01;;;;;;;18.30;16.43;;;;;;;;;;6242273;22;20227;-68
2021/05/19 10:13:49;;;;;;;17.40;15.63;;;;;;;;;;6242053;23;20168;-68
2021/05/19 10:16:38;;;;;;;17.67;15.77;;;;;;;;;;6241369;23;20652;-68
2021/05/19 10:19:25;;;;;;;18.23;16.33;;;;;;;;;;6241969;23;20181;-71
2021/05/19 10:22:12;;;;;;;14.40;13.00;;;;;;;;;;6242939;22;20277;-71
2021/05/19 10:25:01;;;;;;;16.23;14.50;;;;;;;;;;6243258;23;20216;-70
2021/05/19 10:27:49;;;;;;;13.60;11.53;;;;;;;;;;6242755;23;20221;-72
2021/05/19 10:30:38;;;;;;;12.95;11.45;;;;;;;;;;6241814;22;20390;-72
2021/05/19 10:33:41;;;;;;;13.10;11.73;;;;;;;;;;6243005;23;20172;-73
2021/05/19 10:36:30;;;;;;;6.87;5.50;;;;;;;;;;6241476;23;20199;-73
2021/05/19 10:39:19;;;;;;;1.87;1.77;;;;;;;;;;6242819;23;20252;-72
2021/05/19 10:42:04;;;;;;;1.83;1.40;;;;;;;;;;6242515;22;20259;-70
2021/05/19 10:45:01;;;;;;;1.97;1.33;;;;;;;;;;6242595;23;20169;-71
2021/05/19 10:47:52;;;;;;;2.17;1.97;;;;;;;;;;6242748;23;20176;-70
2021/05/19 10:50:40;;;;;;;3.30;2.77;;;;;;;;;;6242146;22;20176;-70
2021/05/19 10:59:52;;;;;;;3.20;2.90;;;;;;;;;;6243000;23;20204;-71
2021/05/19 11:03:03;;;;;;;5.57;3.67;;;;;;;;;;6242422;22;20202;-69
2021/05/19 11:06:07;;;;;;;6.23;3.47;;;;;;;;;;6242401;23;20220;-69
2021/05/19 11:08:51;;;;;;;5.90;4.00;;;;;;;;;;6243057;23;20172;-69
2021/05/19 11:11:36;;;;;;;4.00;3.70;;;;;;;;;;6242970;22;20680;-71
2021/05/19 11:14:31;;;;;;;4.50;4.13;;;;;;;;;;6242193;23;20257;-71
2021/05/19 11:17:26;;;;;;;4.87;4.33;;;;;;;;;;6242498;23;20201;-72
2021/05/19 11:20:12;;;;;;;7.78;6.65;;;;;;;;;;6241207;23;20385;-72
2021/05/19 11:23:09;;;;;;;5.60;5.03;;;;;;;;;;6242634;23;20219;-72
2021/05/19 11:26:07;;;;;;;5.83;5.17;;;;;;;;;;6242108;23;20168;-72
2021/05/19 11:28:56;;;;;;;5.40;4.63;;;;;;;;;;6242656;23;20168;-71
2021/05/19 11:31:44;;;;;;;5.07;4.47;;;;;;;;;;6242443;22;20247;-71
2021/05/19 11:34:33;;;;;;;4.07;3.67;;;;;;;;;;6242798;23;20172;-71
2021/05/19 11:37:21;;;;;;;4.07;3.53;;;;;;;;;;6241919;23;20259;-71
2021/05/19 11:40:12;;;;;;;4.10;3.70;;;;;;;;;;6242014;22;20173;-70
2021/05/19 11:43:01;;;;;;;5.07;4.57;;;;;;;;;;6242717;23;20785;-70
2021/05/19 11:45:53;;;;;;;4.40;4.00;;;;;;;;;;6241869;23;20193;-70
2021/05/19 11:48:48;;;;;;;4.83;3.90;;;;;;;;;;6244690;23;20211;-70
2021/05/19 11:51:32;;;;;;;4.60;4.20;;;;;;;;;;6244482;22;20244;-71
2021/05/19 11:54:17;;;;;;;7.17;6.53;;;;;;;;;;6244685;23;20244;-70
2021/05/19 11:57:07;;;;;;;9.30;6.83;;;;;;;;;;6243721;23;20282;-70
2021/05/19 11:59:58;;;;;;;4.63;3.70;;;;;;;;;;6244493;23;20577;-68
2021/05/19 12:02:54;;;;;;;4.00;3.70;;;;;;;;;;6244326;23;20301;-68
2021/05/19 12:05:39;;;;;;;3.80;3.60;;;;;;;;;;6244013;23;20175;-68
2021/05/19 12:08:35;;;;;;;3.53;3.23;;;;;;;;;;6244494;23;20280;-69
2021/05/19 12:11:21;;;;;;;4.30;3.77;;;;;;;;;;6243031;22;20987;-70
2021/05/19 12:14:10;;;;;;;4.23;3.57;;;;;;;;;;6244269;23;20178;-70
2021/05/19 12:16:54;;;;;;;4.47;4.07;;;;;;;;;;6243467;23;20197;-68
2021/05/19 12:19:39;;;;;;;4.13;3.80;;;;;;;;;;6244261;23;20221;-68
2021/05/19 12:22:27;;;;;;;4.60;4.07;;;;;;;;;;6244240;23;20177;-69
2021/05/19 12:25:14;;;;;;;5.00;3.73;;;;;;;;;;6243429;23;20170;-70
2021/05/19 12:28:02;;;;;;;4.53;4.17;;;;;;;;;;6244303;23;20194;-69
2021/05/19 12:30:49;;;;;;;4.00;3.70;;;;;;;;;;6244310;22;20582;-69
2021/05/19 12:33:37;;;;;;;4.10;3.70;;;;;;;;;;6244468;23;20678;-69
2021/05/19 12:36:26;;;;;;;4.23;3.80;;;;;;;;;;6243473;23;20203;-69
2021/05/19 12:39:11;;;;;;;4.33;3.93;;;;;;;;;;6243937;23;20209;-69
2021/05/19 12:41:57;;;;;;;4.37;4.03;;;;;;;;;;6242556;22;20693;-69
2021/05/19 12:44:42;;;;;;;4.17;3.87;;;;;;;;;;6242140;23;20167;-70
2021/05/19 12:47:27;;;;;;;4.40;4.00;;;;;;;;;;6242012;23;20554;-71
2021/05/19 12:50:14;;;;;;;4.30;3.90;;;;;;;;;;6242173;22;20573;-70
2021/05/19 12:52:59;;;;;;;4.40;4.00;;;;;;;;;;6242103;23;20172;-70
2021/05/19 12:55:44;;;;;;;4.30;3.90;;;;;;;;;;6241682;23;20171;-72
2021/05/19 12:58:29;;;;;;;4.30;3.87;;;;;;;;;;6241789;23;20179;-71
2021/05/19 13:01:14;;;;;;;4.50;4.20;;;;;;;;;;6241336;22;20399;-70
2021/05/19 13:04:01;;;;;;;4.20;3.90;;;;;;;;;;6241799;23;20169;-70
2021/05/19 13:06:51;;;;;;;3.90;3.60;;;;;;;;;;6241719;23;20243;-72
2021/05/19 13:09:38;;;;;;;3.67;3.47;;;;;;;;;;6242007;23;20169;-72
2021/05/19 13:12:26;;;;;;;3.40;3.20;;;;;;;;;;6242060;23;20664;-72
2021/05/19 13:15:15;;;;;;;3.60;3.27;;;;;;;;;;6240474;23;20208;-71
2021/05/19 13:18:10;;;;;;;3.83;3.53;;;;;;;;;;6241761;23;20643;-70
2021/05/19 13:21:05;;;;;;;3.47;3.17;;;;;;;;;;6241443;22;20688;-70
2021/05/19 13:23:54;;;;;;;4.60;4.20;;;;;;;;;;6242058;23;20184;-72
2021/05/19 13:26:40;;;;;;;6.50;5.90;;;;;;;;;;6241053;23;20303;-72
2021/05/19 13:29:25;;;;;;;5.00;4.50;;;;;;;;;;6241380;23;20184;-71
2021/05/19 13:32:16;;;;;;;4.80;4.30;;;;;;;;;;6241941;23;20234;-71
2021/05/19 13:38:05;;;;;;;4.82;4.45;;;;;;;;;;6239954;23;20452;-69
2021/05/19 13:40:50;;;;;;;5.83;5.20;;;;;;;;;;6241570;22;20811;-69
2021/05/19 13:43:34;;;;;;;6.70;6.10;;;;;;;;;;6241414;23;20679;-70
2021/05/19 13:46:22;;;;;;;6.73;5.63;;;;;;;;;;6240955;23;20252;-71
2021/05/19 13:52:06;;;;;;;5.53;5.10;;;;;;;;;;6241411;23;20400;-71
2021/05/19 13:54:54;;;;;;;2.90;2.70;;;;;;;;;;6241839;23;20336;-71
2021/05/19 13:57:39;;;;;;;2.57;2.37;;;;;;;;;;6241389;23;20289;-71
2021/05/19 14:00:24;;;;;;;2.60;2.50;;;;;;;;;;6241158;22;20530;-71
2021/05/19 14:03:08;;;;;;;2.80;2.60;;;;;;;;;;6241586;23;20168;-71
2021/05/19 14:05:55;;;;;;;2.60;2.13;;;;;;;;;;6240694;23;20172;-70
2021/05/19 14:08:39;;;;;;;2.27;2.17;;;;;;;;;;6241347;23;20506;-69
2021/05/19 14:11:28;;;;;;;3.03;2.10;;;;;;;;;;6240932;22;20495;-70
2021/05/19 14:14:25;;;;;;;1.70;1.60;;;;;;;;;;6241203;23;20216;-70
2021/05/19 14:20:43;;;;;;;1.70;1.57;;;;;;;;;;6238130;22;20258;-71
2021/05/19 14:29:33;;;;;;;2.13;1.93;;;;;;;;;;6241079;22;20197;-69
2021/05/19 14:32:18;;;;;;;2.30;2.10;;;;;;;;;;6241051;23;20176;-68
2021/05/19 14:35:05;;;;;;;8.20;6.50;;;;;;;;;;6239352;23;20165;-68
2021/05/19 14:38:43;;;;;;;2.20;2.00;;;;;;;;;;6239812;23;20200;-69
2021/05/19 14:59:59;;;;;;;2.50;2.00;;;;;;;;;;6204803;22;20216;-68
2021/05/19 15:02:45;;;;;;;2.20;2.03;;;;;;;;;;6241076;23;20219;-68
2021/05/19 15:05:34;;;;;;;1.93;1.83;;;;;;;;;;6240080;23;20519;-69
2021/05/19 15:08:22;;;;;;;1.50;1.40;;;;;;;;;;6240734;23;20234;-68
2021/05/19 15:11:12;;;;;;;1.80;1.70;;;;;;;;;;6240634;22;20235;-70
2021/05/19 15:14:00;;;;;;;1.80;1.70;;;;;;;;;;6241056;23;20211;-69
2021/05/19 15:16:46;;;;;;;1.90;1.80;;;;;;;;;;6240170;23;20207;-68
2021/05/19 15:19:30;;;;;;;1.80;1.70;;;;;;;;;;6241101;22;20595;-68
2021/05/19 15:22:15;;;;;;;2.10;2.00;;;;;;;;;;6241667;23;20222;-68
2021/05/19 15:25:11;;;;;;;1.87;1.77;;;;;;;;;;6243005;23;20247;-69
2021/05/19 15:27:56;;;;;;;2.47;2.37;;;;;;;;;;6242814;23;20195;-69
2021/05/19 15:30:43;;;;;;;3.50;3.20;;;;;;;;;;6242163;22;20901;-68
2021/05/19 15:33:28;;;;;;;3.13;2.93;;;;;;;;;;6242118;23;20523;-68
2021/05/19 15:36:13;;;;;;;4.83;3.10;;;;;;;;;;6242047;23;20251;-69
2021/05/19 15:38:58;;;;;;;3.73;3.17;;;;;;;;;;6241719;22;20234;-68
2021/05/19 15:41:44;;;;;;;3.60;3.40;;;;;;;;;;6242614;23;20199;-68
2021/05/19 15:44:28;;;;;;;2.80;2.60;;;;;;;;;;6241547;23;20175;-68
2021/05/19 15:47:16;;;;;;;2.30;2.20;;;;;;;;;;6240442;23;20169;-69
2021/05/19 15:50:02;;;;;;;2.70;2.40;;;;;;;;;;6241284;22;20210;-70
2021/05/19 15:52:46;;;;;;;2.30;2.20;;;;;;;;;;6242513;23;20193;-69
2021/05/19 15:55:30;;;;;;;3.87;3.63;;;;;;;;;;6242201;23;20193;-71
2021/05/19 15:58:15;;;;;;;2.60;2.40;;;;;;;;;;6242128;23;20173;-72
2021/05/19 16:01:01;;;;;;;2.97;2.77;;;;;;;;;;6242234;23;20226;-73
2021/05/19 16:03:46;;;;;;;2.70;2.50;;;;;;;;;;6242130;23;20176;-72
2021/05/19 16:06:31;;;;;;;2.10;2.00;;;;;;;;;;6241994;23;20179;-71
2021/05/19 16:09:16;;;;;;;2.10;2.00;;;;;;;;;;6242182;22;20259;-71
2021/05/19 16:12:00;;;;;;;2.63;2.53;;;;;;;;;;6242449;23;20477;-71
2021/05/19 16:14:44;;;;;;;3.03;2.83;;;;;;;;;;6242371;23;20561;-71
2021/05/19 16:17:30;;;;;;;2.60;2.40;;;;;;;;;;6241818;23;20204;-71
2021/05/19 16:20:15;;;;;;;2.93;2.80;;;;;;;;;;6242245;22;20216;-70
2021/05/19 16:23:02;;;;;;;2.78;2.58;;;;;;;;;;6240701;23;20429;-69
2021/05/19 16:25:47;;;;;;;2.60;2.40;;;;;;;;;;6241829;23;20168;-70
2021/05/19 16:28:34;;;;;;;2.63;2.43;;;;;;;;;;6241955;22;20620;-70
2021/05/19 16:31:20;;;;;;;2.67;2.47;;;;;;;;;;6242208;23;20619;-69
2021/05/19 16:34:14;;;;;;;2.00;1.90;;;;;;;;;;6241747;23;20249;-71
2021/05/19 16:37:00;;;;;;;2.93;2.73;;;;;;;;;;6241660;23;20196;-69
2021/05/19 16:39:46;;;;;;;2.73;2.60;;;;;;;;;;6241313;22;20206;-69
2021/05/19 16:42:30;;;;;;;3.80;3.50;;;;;;;;;;6242133;23;20173;-69
2021/05/19 16:45:20;;;;;;;3.40;3.10;;;;;;;;;;6241469;23;20632;-70
2021/05/19 16:48:06;;;;;;;3.70;3.50;;;;;;;;;;6241683;23;20224;-70
2021/05/19 16:50:50;;;;;;;3.97;3.40;;;;;;;;;;6241935;23;20189;-70
2021/05/19 16:53:37;;;;;;;3.47;3.20;;;;;;;;;;6241926;23;20629;-69
2021/05/19 16:56:23;;;;;;;4.50;3.80;;;;;;;;;;6240149;23;20409;-70
2021/05/19 16:59:08;;;;;;;4.00;3.70;;;;;;;;;;6241509;22;20220;-69
2021/05/19 17:04:57;;;;;;;4.77;3.93;;;;;;;;;;6242032;23;20628;-69
2021/05/19 17:07:42;;;;;;;4.13;3.93;;;;;;;;;;6242555;23;20246;-69
2021/05/19 17:10:30;;;;;;;4.70;4.33;;;;;;;;;;6241485;22;20200;-69
2021/05/19 17:13:16;;;;;;;4.95;4.55;;;;;;;;;;6240040;23;20449;-69
2021/05/19 17:16:00;;;;;;;4.27;4.00;;;;;;;;;;6240855;23;20192;-70
2021/05/19 17:18:45;;;;;;;4.77;4.37;;;;;;;;;;6241609;22;20200;-69
2021/05/19 17:21:29;;;;;;;5.23;4.80;;;;;;;;;;6242226;23;20253;-70
2021/05/19 17:24:14;;;;;;;8.10;4.90;;;;;;;;;;6241878;23;20165;-70
2021/05/19 17:26:59;;;;;;;5.03;4.53;;;;;;;;;;6241206;23;20648;-69
2021/05/19 17:29:44;;;;;;;5.10;4.77;;;;;;;;;;6241194;22;20526;-70
2021/05/19 17:32:34;;;;;;;4.87;4.30;;;;;;;;;;6241545;23;20176;-70
2021/05/19 17:35:23;;;;;;;4.20;3.90;;;;;;;;;;6240781;23;20228;-68
2021/05/19 17:38:08;;;;;;;4.80;4.40;;;;;;;;;;6241384;22;20328;-70
2021/05/19 17:40:52;;;;;;;5.20;4.20;;;;;;;;;;6241721;23;20212;-70
2021/05/19 17:43:40;;;;;;;4.90;4.40;;;;;;;;;;6241411;23;20597;-70
2021/05/19 17:46:25;;;;;;;4.97;4.47;;;;;;;;;;6240672;23;20630;-70
2021/05/19 17:49:11;;;;;;;5.50;4.87;;;;;;;;;;6241167;22;20196;-70
2021/05/19 17:52:01;;;;;;;6.63;5.93;;;;;;;;;;6241558;23;20171;-70
2021/05/19 17:54:46;;;;;;;6.07;5.57;;;;;;;;;;6241499;23;20647;-70
2021/05/19 17:57:30;;;;;;;6.17;5.67;;;;;;;;;;6241325;23;20199;-69
2021/05/19 18:00:17;;;;;;;6.00;5.50;;;;;;;;;;6241330;22;20203;-70
2021/05/19 18:03:05;;;;;;;6.60;6.00;;;;;;;;;;6239710;23;20820;-70
2021/05/19 18:05:49;;;;;;;7.43;6.73;;;;;;;;;;6240797;23;20862;-70
2021/05/19 18:08:41;;;;;;;6.97;6.37;;;;;;;;;;6240486;22;20331;-69
2021/05/19 18:11:25;;;;;;;7.03;6.53;;;;;;;;;;6241139;23;20220;-69
2021/05/19 18:14:10;;;;;;;7.10;6.70;;;;;;;;;;6241094;23;20231;-70
2021/05/19 18:16:59;;;;;;;7.37;6.77;;;;;;;;;;6240718;23;20200;-69